sensor_id;sensor_type;location;lat;lon;timestamp;P1;durP1;ratioP1;P2;durP2;ratioP2
71294;SDS011;59080;31.686;73.862;2022-08-19T12:14:24;18.52;;;4.45;;
71294;SDS011;59080;31.686;73.862;2022-08-19T12:16:54;14.93;;;4.32;;
71294;SDS011;59080;31.686;73.862;2022-08-19T12:19:23;14.77;;;5.13;;
71294;SDS011;59080;31.686;73.862;2022-08-19T12:21:52;13.95;;;4.65;;
71294;SDS011;59080;31.686;73.862;2022-08-19T12:24:26;11.50;;;5.00;;
71294;SDS011;59080;31.686;73.862;2022-08-19T12:26:59;17.23;;;4.90;;
71294;SDS011;59080;31.686;73.862;2022-08-19T12:29:32;10.63;;;4.90;;
71294;SDS011;59080;31.686;73.862;2022-08-19T12:32:24;15.02;;;4.95;;
71294;SDS011;59080;31.686;73.862;2022-08-19T12:34:52;14.98;;;4.65;;
71294;SDS011;59080;31.686;73.862;2022-08-19T12:37:21;21.35;;;5.55;;
71294;SDS011;59080;31.686;73.862;2022-08-19T12:39:55;16.27;;;5.05;;
71294;SDS011;59080;31.686;73.862;2022-08-19T12:42:25;14.45;;;4.90;;
71294;SDS011;59080;31.686;73.862;2022-08-19T12:44:58;19.42;;;4.72;;
71294;SDS011;59080;31.686;73.862;2022-08-19T12:47:40;17.63;;;4.72;;
71294;SDS011;59080;31.686;73.862;2022-08-19T12:50:08;10.02;;;4.13;;
71294;SDS011;59080;31.686;73.862;2022-08-19T12:52:36;18.98;;;4.85;;
71294;SDS011;59080;31.686;73.862;2022-08-19T12:55:09;17.83;;;5.68;;
71294;SDS011;59080;31.686;73.862;2022-08-19T12:57:39;11.85;;;5.07;;
71294;SDS011;59080;31.686;73.862;2022-08-19T13:00:12;17.80;;;5.25;;
71294;SDS011;59080;31.686;73.862;2022-08-19T13:02:51;9.88;;;4.65;;
71294;SDS011;59080;31.686;73.862;2022-08-19T13:05:25;14.15;;;4.95;;
71294;SDS011;59080;31.686;73.862;2022-08-19T13:07:56;20.55;;;5.35;;
71294;SDS011;59080;31.686;73.862;2022-08-19T13:10:27;14.15;;;4.60;;
71294;SDS011;59080;31.686;73.862;2022-08-19T13:13:08;20.00;;;5.93;;
71294;SDS011;59080;31.686;73.862;2022-08-19T13:19:50;13.68;;;5.03;;
71294;SDS011;59080;31.686;73.862;2022-08-19T13:22:18;13.00;;;5.25;;
71294;SDS011;59080;31.686;73.862;2022-08-19T13:24:46;13.93;;;5.20;;
71294;SDS011;59080;31.686;73.862;2022-08-19T13:27:30;23.60;;;5.78;;
71294;SDS011;59080;31.686;73.862;2022-08-19T13:30:21;18.95;;;5.63;;
71294;SDS011;59080;31.686;73.862;2022-08-19T13:33:28;16.88;;;5.00;;
71294;SDS011;59080;31.686;73.862;2022-08-19T13:36:06;12.52;;;5.30;;
71294;SDS011;59080;31.686;73.862;2022-08-19T13:38:38;16.15;;;5.45;;
71294;SDS011;59080;31.686;73.862;2022-08-19T13:41:18;14.77;;;5.25;;
71294;SDS011;59080;31.686;73.862;2022-08-19T13:43:46;15.95;;;6.18;;
71294;SDS011;59080;31.686;73.862;2022-08-19T13:46:15;14.80;;;5.70;;
71294;SDS011;59080;31.686;73.862;2022-08-19T13:48:50;16.02;;;6.28;;
71294;SDS011;59080;31.686;73.862;2022-08-19T13:51:18;18.55;;;6.55;;
71294;SDS011;59080;31.686;73.862;2022-08-19T13:53:46;19.38;;;6.95;;
71294;SDS011;59080;31.686;73.862;2022-08-19T13:56:16;19.85;;;7.47;;
71294;SDS011;59080;31.686;73.862;2022-08-19T13:58:52;19.38;;;8.68;;
71294;SDS011;59080;31.686;73.862;2022-08-19T14:01:21;20.55;;;9.05;;
71294;SDS011;59080;31.686;73.862;2022-08-19T14:03:50;23.60;;;9.32;;
71294;SDS011;59080;31.686;73.862;2022-08-19T14:06:32;20.48;;;9.02;;
71294;SDS011;59080;31.686;73.862;2022-08-19T14:09:01;23.10;;;8.68;;
71294;SDS011;59080;31.686;73.862;2022-08-19T14:14:40;24.25;;;8.45;;
71294;SDS011;59080;31.686;73.862;2022-08-19T14:17:09;24.50;;;8.20;;
71294;SDS011;59080;31.686;73.862;2022-08-19T14:19:37;38.38;;;8.38;;
71294;SDS011;59080;31.686;73.862;2022-08-19T14:22:05;21.52;;;7.80;;
71294;SDS011;59080;31.686;73.862;2022-08-19T14:24:33;21.83;;;8.02;;
71294;SDS011;59080;31.686;73.862;2022-08-19T14:27:04;26.83;;;7.75;;
71294;SDS011;59080;31.686;73.862;2022-08-19T14:29:33;22.70;;;8.75;;
71294;SDS011;59080;31.686;73.862;2022-08-19T14:32:14;24.92;;;7.90;;
71294;SDS011;59080;31.686;73.862;2022-08-19T14:35:00;23.27;;;7.93;;
71294;SDS011;59080;31.686;73.862;2022-08-19T14:37:30;26.67;;;8.15;;
71294;SDS011;59080;31.686;73.862;2022-08-19T14:39:59;28.95;;;9.20;;
71294;SDS011;59080;31.686;73.862;2022-08-19T14:42:30;21.67;;;8.52;;
71294;SDS011;59080;31.686;73.862;2022-08-19T14:45:01;23.92;;;8.77;;
71294;SDS011;59080;31.686;73.862;2022-08-19T14:47:36;27.27;;;8.40;;
71294;SDS011;59080;31.686;73.862;2022-08-19T14:50:10;23.30;;;7.55;;
71294;SDS011;59080;31.686;73.862;2022-08-19T14:52:45;16.27;;;7.70;;
71294;SDS011;59080;31.686;73.862;2022-08-19T14:55:17;21.75;;;7.55;;
71294;SDS011;59080;31.686;73.862;2022-08-19T14:57:52;19.52;;;8.07;;
71294;SDS011;59080;31.686;73.862;2022-08-19T15:00:26;27.83;;;9.02;;
71294;SDS011;59080;31.686;73.862;2022-08-19T15:03:13;20.20;;;8.43;;
71294;SDS011;59080;31.686;73.862;2022-08-19T15:05:42;23.95;;;8.13;;
71294;SDS011;59080;31.686;73.862;2022-08-19T15:11:58;23.05;;;9.63;;
71294;SDS011;59080;31.686;73.862;2022-08-19T15:14:28;30.33;;;8.75;;
71294;SDS011;59080;31.686;73.862;2022-08-19T15:17:01;30.75;;;9.45;;
71294;SDS011;59080;31.686;73.862;2022-08-19T15:19:31;26.30;;;10.68;;
71294;SDS011;59080;31.686;73.862;2022-08-19T15:22:05;31.55;;;11.15;;
71294;SDS011;59080;31.686;73.862;2022-08-19T15:24:35;32.58;;;11.32;;
71294;SDS011;59080;31.686;73.862;2022-08-19T15:27:05;26.67;;;10.07;;
71294;SDS011;59080;31.686;73.862;2022-08-19T15:29:35;25.23;;;10.10;;
71294;SDS011;59080;31.686;73.862;2022-08-19T15:32:03;19.95;;;9.52;;
71294;SDS011;59080;31.686;73.862;2022-08-19T15:34:34;29.07;;;8.20;;
71294;SDS011;59080;31.686;73.862;2022-08-19T15:37:02;21.00;;;8.32;;
71294;SDS011;59080;31.686;73.862;2022-08-19T15:39:36;31.38;;;9.88;;
71294;SDS011;59080;31.686;73.862;2022-08-19T15:42:06;29.70;;;9.60;;
71294;SDS011;59080;31.686;73.862;2022-08-19T15:44:35;30.63;;;10.63;;
71294;SDS011;59080;31.686;73.862;2022-08-19T15:47:04;30.13;;;10.98;;
71294;SDS011;59080;31.686;73.862;2022-08-19T15:49:33;26.27;;;10.35;;
71294;SDS011;59080;31.686;73.862;2022-08-19T15:52:02;34.95;;;10.93;;
71294;SDS011;59080;31.686;73.862;2022-08-19T15:54:36;30.90;;;11.68;;
71294;SDS011;59080;31.686;73.862;2022-08-19T15:57:06;31.23;;;11.50;;
71294;SDS011;59080;31.686;73.862;2022-08-19T15:59:53;31.40;;;11.65;;
71294;SDS011;59080;31.686;73.862;2022-08-19T16:02:40;30.42;;;12.43;;
71294;SDS011;59080;31.686;73.862;2022-08-19T16:05:26;31.58;;;10.55;;
71294;SDS011;59080;31.686;73.862;2022-08-19T16:08:27;25.52;;;10.27;;
71294;SDS011;59080;31.686;73.862;2022-08-19T16:10:57;22.25;;;9.57;;
71294;SDS011;59080;31.686;73.862;2022-08-19T16:13:26;25.13;;;9.07;;
71294;SDS011;59080;31.686;73.862;2022-08-19T16:15:55;27.58;;;9.25;;
71294;SDS011;59080;31.686;73.862;2022-08-19T16:18:23;30.85;;;8.90;;
71294;SDS011;59080;31.686;73.862;2022-08-19T16:20:52;26.23;;;8.70;;
71294;SDS011;59080;31.686;73.862;2022-08-19T16:23:20;27.40;;;9.55;;
71294;SDS011;59080;31.686;73.862;2022-08-19T16:25:49;26.38;;;8.70;;
71294;SDS011;59080;31.686;73.862;2022-08-19T16:28:20;22.60;;;8.98;;
71294;SDS011;59080;31.686;73.862;2022-08-19T16:30:49;24.85;;;9.15;;
71294;SDS011;59080;31.686;73.862;2022-08-19T16:33:18;21.45;;;8.45;;
71294;SDS011;59080;31.686;73.862;2022-08-19T16:35:47;14.73;;;7.57;;
71294;SDS011;59080;31.686;73.862;2022-08-19T16:38:15;24.75;;;8.20;;
71294;SDS011;59080;31.686;73.862;2022-08-19T16:40:47;21.77;;;8.63;;
71294;SDS011;59080;31.686;73.862;2022-08-19T16:43:21;19.38;;;7.60;;
71294;SDS011;59080;31.686;73.862;2022-08-19T16:49:34;28.70;;;7.78;;
71294;SDS011;59080;31.686;73.862;2022-08-19T16:52:03;25.10;;;7.88;;
